Time;durP1;ratioP1;P1;durP2;ratioP2;P2;SDS_P1;SDS_P2;PMS_P1;PMS_P2;Temp;Humidity;BMP_temperature;BMP_pressure;BME280_temperature;BME280_humidity;BME280_pressure;Samples;Min_cycle;Max_cycle;Signal;HPM_P1;HPM_P2
2023/12/21 00:01:37;;;;;;;9.10;1.88;;;;;;;8.71;100.00;100643.72;5175200;27;20054;-73
2023/12/21 00:04:03;;;;;;;12.85;2.25;;;;;;;8.72;100.00;100631.94;5176466;27;20066;-73
2023/12/21 00:06:30;;;;;;;9.60;1.98;;;;;;;8.73;100.00;100634.19;5175326;27;20038;-73
2023/12/21 00:08:57;;;;;;;5.90;1.98;;;;;;;8.76;100.00;100633.31;5175572;27;20042;-73
2023/12/21 00:11:24;;;;;;;6.68;2.15;;;;;;;8.77;100.00;100629.50;5175598;27;20035;-74
2023/12/21 00:13:51;;;;;;;5.75;1.60;;;;;;;8.80;100.00;100633.19;5176539;27;20070;-74
2023/12/21 00:16:17;;;;;;;9.13;1.77;;;;;;;8.80;100.00;100623.31;5175461;27;20043;-74
2023/12/21 00:18:44;;;;;;;4.15;1.77;;;;;;;8.80;100.00;100615.34;5178408;27;20047;-74
2023/12/21 00:21:10;;;;;;;8.98;2.10;;;;;;;8.81;100.00;100605.47;5181623;27;20069;-73
2023/12/21 00:23:37;;;;;;;9.90;2.40;;;;;;;8.82;100.00;100609.59;5181570;27;20049;-74
2023/12/21 00:26:04;;;;;;;10.15;1.95;;;;;;;8.82;100.00;100620.97;5181992;27;20039;-74
2023/12/21 00:28:30;;;;;;;10.75;2.20;;;;;;;8.84;100.00;100591.34;5175835;27;20047;-73
2023/12/21 00:30:57;;;;;;;5.50;2.40;;;;;;;8.85;100.00;100587.50;5171933;27;20047;-73
2023/12/21 00:33:24;;;;;;;7.88;1.83;;;;;;;8.86;100.00;100592.38;5175177;27;20520;-73
2023/12/21 00:35:51;;;;;;;6.53;1.60;;;;;;;8.88;100.00;100584.00;5175380;27;20051;-74
2023/12/21 00:38:17;;;;;;;5.72;2.03;;;;;;;8.89;100.00;100586.22;5171368;27;20050;-73
2023/12/21 00:40:44;;;;;;;6.18;1.58;;;;;;;8.90;100.00;100565.72;5175860;27;20035;-73
2023/12/21 00:43:10;;;;;;;6.28;1.60;;;;;;;8.90;100.00;100571.78;5175198;27;20074;-73
2023/12/21 00:45:37;;;;;;;8.02;1.80;;;;;;;8.89;100.00;100570.28;5174653;27;20166;-73
2023/12/21 00:48:04;;;;;;;6.15;2.13;;;;;;;8.91;100.00;100559.25;5175307;27;20784;-73
2023/12/21 00:50:31;;;;;;;7.95;2.20;;;;;;;8.90;100.00;100552.44;5171416;27;20050;-73
2023/12/21 00:52:57;;;;;;;3.95;1.63;;;;;;;8.91;100.00;100545.97;5175637;27;20493;-73
2023/12/21 00:55:24;;;;;;;6.63;1.50;;;;;;;8.90;100.00;100534.59;5174730;27;20046;-73
2023/12/21 00:57:50;;;;;;;3.83;1.30;;;;;;;8.91;100.00;100532.69;5177721;27;20047;-73
2023/12/21 01:00:18;;;;;;;4.95;1.50;;;;;;;8.91;100.00;100540.66;5178599;27;20050;-73
2023/12/21 01:02:44;;;;;;;6.88;1.70;;;;;;;8.91;100.00;100528.13;5178406;27;20035;-73
2023/12/21 01:05:11;;;;;;;8.13;1.88;;;;;;;8.92;100.00;100515.59;5179359;27;20835;-73
2023/12/21 01:07:37;;;;;;;6.18;1.77;;;;;;;8.92;100.00;100515.59;5179057;27;20047;-73
2023/12/21 01:10:05;;;;;;;8.70;1.83;;;;;;;8.92;100.00;100520.91;5179248;27;20561;-73
2023/12/21 01:12:32;;;;;;;4.30;1.52;;;;;;;8.92;100.00;100528.88;5173880;27;20042;-73
2023/12/21 01:15:00;;;;;;;8.32;1.83;;;;;;;8.91;100.00;100522.81;5178325;27;20425;-73
2023/12/21 01:17:27;;;;;;;5.90;1.92;;;;;;;8.92;100.00;100519.00;5177696;27;20038;-73
2023/12/21 01:19:54;;;;;;;5.15;1.70;;;;;;;8.93;100.00;100504.53;5178708;27;20146;-73
2023/12/21 01:22:20;;;;;;;4.15;1.67;;;;;;;8.94;100.00;100510.59;5178783;27;20066;-73
2023/12/21 01:24:47;;;;;;;5.75;1.25;;;;;;;8.94;100.00;100492.00;5177962;27;20091;-73
2023/12/21 01:27:14;;;;;;;7.15;1.65;;;;;;;8.94;100.00;100508.69;5177642;27;20043;-73
2023/12/21 01:29:56;;;;;;;6.72;1.77;;;;;;;8.93;100.00;100501.88;5178474;27;20049;-73
2023/12/21 01:32:22;;;;;;;7.43;1.65;;;;;;;8.94;100.00;100507.94;5159774;27;20039;-73
2023/12/21 01:34:49;;;;;;;5.07;1.73;;;;;;;8.95;100.00;100496.16;5178090;27;20049;-73
2023/12/21 01:37:15;;;;;;;12.75;1.98;;;;;;;8.95;100.00;100494.22;5159602;27;20038;-73
2023/12/21 01:39:42;;;;;;;12.98;2.33;;;;;;;8.96;100.00;100479.78;5178210;27;20064;-73
2023/12/21 01:42:09;;;;;;;6.82;2.20;;;;;;;8.97;100.00;100473.31;5178181;27;20047;-73
2023/12/21 01:44:35;;;;;;;9.48;2.15;;;;;;;8.98;100.00;100477.44;5177400;27;20038;-73
2023/12/21 01:47:02;;;;;;;5.30;1.98;;;;;;;8.99;100.00;100470.97;5178496;27;20602;-73
2023/12/21 01:49:30;;;;;;;3.67;1.92;;;;;;;9.00;100.00;100469.03;5177658;27;20095;-73
2023/12/21 01:51:58;;;;;;;6.88;1.80;;;;;;;8.99;100.00;100478.91;5178717;27;20039;-73
2023/12/21 01:54:25;;;;;;;4.85;1.80;;;;;;;9.01;100.00;100487.19;5175375;27;20036;-73
2023/12/21 01:56:51;;;;;;;10.10;2.25;;;;;;;9.02;100.00;100482.63;5177193;27;20066;-73
2023/12/21 01:59:18;;;;;;;7.15;1.85;;;;;;;9.05;100.00;100491.63;5159813;27;20042;-74
2023/12/21 02:01:47;;;;;;;11.02;1.85;;;;;;;9.06;100.00;100487.81;5177631;27;20039;-74
2023/12/21 02:04:14;;;;;;;6.88;1.25;;;;;;;9.06;100.00;100474.53;5178355;27;20046;-74
2023/12/21 02:06:41;;;;;;;6.00;1.88;;;;;;;9.06;100.00;100466.56;5177574;27;20074;-74
2023/12/21 02:09:08;;;;;;;6.28;1.90;;;;;;;9.07;100.00;100460.09;5177001;27;20047;-74
2023/12/21 02:11:34;;;;;;;10.05;2.33;;;;;;;9.07;100.00;100452.13;5177219;27;20148;-74
2023/12/21 02:14:01;;;;;;;5.78;2.03;;;;;;;9.07;100.00;100446.81;5177766;27;20043;-74
2023/12/21 02:16:38;;;;;;;6.30;1.92;;;;;;;9.07;100.00;100433.53;5177425;27;20047;-74
2023/12/21 02:19:04;;;;;;;5.93;1.48;;;;;;;9.05;100.00;100447.25;5177119;27;20134;-74
2023/12/21 02:21:34;;;;;;;4.05;1.85;;;;;;;9.06;100.00;100438.09;5177930;27;20047;-74
2023/12/21 02:24:01;;;;;;;3.35;1.27;;;;;;;9.09;100.00;100428.53;5176733;27;20131;-74
2023/12/21 02:26:27;;;;;;;6.32;1.70;;;;;;;9.08;100.00;100422.47;5177272;27;20570;-74
2023/12/21 02:28:54;;;;;;;6.60;1.75;;;;;;;9.09;100.00;100409.94;5177678;27;20495;-74
2023/12/21 02:31:20;;;;;;;6.47;1.80;;;;;;;9.06;100.00;100406.25;5177293;27;20489;-74
2023/12/21 02:33:47;;;;;;;6.03;1.73;;;;;;;9.08;100.00;100416.41;5177697;27;20045;-75
2023/12/21 02:36:13;;;;;;;6.45;2.03;;;;;;;9.10;100.00;100408.75;5173684;27;20505;-75
2023/12/21 02:38:40;;;;;;;4.88;1.80;;;;;;;9.08;100.00;100409.19;5176739;27;20070;-75
2023/12/21 02:41:07;;;;;;;10.68;2.25;;;;;;;9.09;100.00;100396.66;5176876;27;20086;-75
2023/12/21 02:43:33;;;;;;;4.68;1.90;;;;;;;9.09;100.00;100394.75;5176346;27;20043;-75
2023/12/21 02:46:00;;;;;;;8.77;1.98;;;;;;;9.08;100.00;100400.50;5177491;27;20117;-75
2023/12/21 02:48:26;;;;;;;11.45;1.73;;;;;;;9.09;100.00;100409.94;5176716;27;20047;-75
2023/12/21 02:50:54;;;;;;;6.93;1.67;;;;;;;9.08;100.00;100400.50;5177143;27;20417;-76
2023/12/21 02:53:20;;;;;;;7.97;1.80;;;;;;;9.07;100.00;100399.75;5177123;27;20905;-75
2023/12/21 02:55:47;;;;;;;5.60;1.73;;;;;;;9.08;100.00;100390.59;5177447;27;20811;-76
2023/12/21 02:58:14;;;;;;;5.32;1.70;;;;;;;9.08;100.00;100387.22;5176509;27;20107;-75
2023/12/21 03:00:40;;;;;;;8.07;1.95;;;;;;;9.09;100.00;100375.41;5176338;27;20054;-75
2023/12/21 03:03:07;;;;;;;10.38;2.20;;;;;;;9.09;100.00;100370.84;5177413;27;20070;-75
2023/12/21 03:05:34;;;;;;;6.22;1.90;;;;;;;9.10;100.00;100351.09;5176077;27;20077;-73
2023/12/21 03:08:00;;;;;;;6.22;1.73;;;;;;;9.11;100.00;100347.25;5176467;27;20035;-72
2023/12/21 03:10:27;;;;;;;5.15;2.00;;;;;;;9.12;100.00;100327.47;5175794;27;20043;-72
2023/12/21 03:12:54;;;;;;;9.75;2.28;;;;;;;9.12;100.00;100302.84;5176931;27;20507;-72
2023/12/21 03:15:20;;;;;;;4.72;2.30;;;;;;;9.13;100.00;100291.06;5175651;27;20050;-72
2023/12/21 03:17:47;;;;;;;4.75;1.65;;;;;;;9.14;100.00;100297.84;5176355;27;20043;-72
2023/12/21 03:20:14;;;;;;;4.20;1.80;;;;;;;9.15;100.00;100288.69;5175765;27;20050;-72
2023/12/21 03:22:40;;;;;;;6.43;1.92;;;;;;;9.15;100.00;100291.34;5175919;27;20054;-72
2023/12/21 03:25:07;;;;;;;5.18;1.70;;;;;;;9.16;100.00;100282.19;5176204;27;20043;-72
2023/12/21 03:27:33;;;;;;;10.57;1.85;;;;;;;9.16;100.00;100276.91;5176183;27;20125;-72
2023/12/21 03:30:00;;;;;;;7.50;1.77;;;;;;;9.15;100.00;100273.50;5177091;27;20043;-72
2023/12/21 03:32:27;;;;;;;5.50;1.65;;;;;;;9.16;100.00;100268.94;5176333;27;20129;-72
2023/12/21 03:34:53;;;;;;;9.38;2.60;;;;;;;9.16;100.00;100259.03;5176258;27;20130;-72
2023/12/21 03:37:20;;;;;;;8.32;2.47;;;;;;;9.15;100.00;100256.81;5172268;27;20043;-72
2023/12/21 03:39:47;;;;;;;6.18;1.90;;;;;;;9.17;100.00;100260.53;5176594;27;20125;-73
2023/12/21 03:42:13;;;;;;;6.65;1.75;;;;;;;9.18;100.00;100262.00;5177053;27;20081;-73
2023/12/21 03:44:40;;;;;;;7.78;2.15;;;;;;;9.19;100.00;100260.81;5176001;27;20043;-73
2023/12/21 03:47:06;;;;;;;9.40;2.33;;;;;;;9.17;100.00;100265.84;5179805;27;20078;-73
2023/12/21 03:49:33;;;;;;;9.27;2.30;;;;;;;9.17;100.00;100249.91;5180601;27;20043;-73
2023/12/21 03:51:59;;;;;;;8.27;1.95;;;;;;;9.16;100.00;100259.03;5181421;27;20038;-73
2023/12/21 03:54:26;;;;;;;3.38;1.65;;;;;;;9.17;100.00;100257.13;5180288;27;20506;-72
2023/12/21 03:56:53;;;;;;;5.15;2.20;;;;;;;9.16;100.00;100255.66;5173158;27;20070;-72
2023/12/21 03:59:19;;;;;;;5.68;1.90;;;;;;;9.15;100.00;100244.28;5176263;27;20051;-72
2023/12/21 04:01:46;;;;;;;12.50;2.47;;;;;;;9.15;100.00;100224.97;5175710;27;20481;-72
2023/12/21 04:04:12;;;;;;;5.68;2.25;;;;;;;9.14;100.00;100212.84;5175021;27;20050;-72
2023/12/21 04:06:39;;;;;;;6.97;2.47;;;;;;;9.13;100.00;100206.81;5176192;27;20043;-72
2023/12/21 04:09:06;;;;;;;9.77;2.28;;;;;;;9.12;100.00;100218.63;5175742;27;20049;-72
2023/12/21 04:11:32;;;;;;;13.70;2.55;;;;;;;9.12;100.00;100201.94;5174492;27;20043;-72
2023/12/21 04:13:59;;;;;;;6.45;1.75;;;;;;;9.10;100.00;100193.69;5175763;27;20521;-72
2023/12/21 04:16:26;;;;;;;9.45;2.38;;;;;;;9.09;100.00;100192.94;5171483;27;20585;-72
2023/12/21 04:18:52;;;;;;;7.57;2.03;;;;;;;9.08;100.00;100177.44;5175873;27;20050;-72
2023/12/21 04:21:19;;;;;;;7.25;2.20;;;;;;;9.07;100.00;100149.41;5175229;27;20047;-72
2023/12/21 04:23:46;;;;;;;7.90;2.08;;;;;;;9.06;100.00;100140.72;5174722;27;20047;-72
2023/12/21 04:26:22;;;;;;;10.15;2.00;;;;;;;9.08;100.00;100138.34;5175890;27;20039;-72
2023/12/21 04:28:49;;;;;;;5.72;1.50;;;;;;;9.09;100.00;100128.47;5175725;27;20083;-72
2023/12/21 04:31:22;;;;;;;6.53;2.00;;;;;;;9.09;100.00;100123.91;5174998;27;20489;-72
2023/12/21 04:33:51;;;;;;;4.63;1.80;;;;;;;9.10;100.00;100121.97;5174491;27;20039;-72
2023/12/21 04:36:19;;;;;;;8.35;2.10;;;;;;;9.10;100.00;100103.41;5175715;27;20164;-72
2023/12/21 04:38:51;;;;;;;5.10;1.98;;;;;;;9.11;100.00;100088.94;5175473;27;20043;-72
2023/12/21 04:41:17;;;;;;;10.80;2.20;;;;;;;9.12;100.00;100093.81;5174447;27;20050;-72
2023/12/21 04:43:44;;;;;;;6.15;2.10;;;;;;;9.15;100.00;100103.53;5175815;27;20088;-72
2023/12/21 04:46:10;;;;;;;6.32;2.25;;;;;;;9.17;100.00;100095.13;5175282;27;20049;-72
2023/12/21 04:48:37;;;;;;;9.20;1.70;;;;;;;9.17;100.00;100095.88;5174792;27;20039;-75
2023/12/21 04:51:04;;;;;;;7.47;1.60;;;;;;;9.20;100.00;100099.53;5175434;27;20548;-75
2023/12/21 04:53:30;;;;;;;5.90;1.90;;;;;;;9.21;100.00;100106.31;5171468;27;20492;-75
2023/12/21 04:55:57;;;;;;;7.93;2.08;;;;;;;9.21;100.00;100099.09;5175138;27;20516;-75
2023/12/21 04:58:23;;;;;;;6.75;1.80;;;;;;;9.23;100.00;100101.31;5156027;27;20046;-75
2023/12/21 05:00:50;;;;;;;5.80;1.80;;;;;;;9.25;100.00;100105.00;5174633;27;20049;-75
2023/12/21 05:03:19;;;;;;;8.15;1.88;;;;;;;9.26;100.00;100090.53;5175395;27;20544;-75
2023/12/21 05:05:46;;;;;;;4.72;1.83;;;;;;;9.26;100.00;100068.53;5174130;27;20145;-75
2023/12/21 05:08:13;;;;;;;6.72;1.60;;;;;;;9.26;100.00;100077.25;5175232;27;20035;-75
2023/12/21 05:10:40;;;;;;;7.20;1.70;;;;;;;9.25;100.00;100072.38;5174036;27;20096;-75
2023/12/21 05:13:07;;;;;;;5.97;1.50;;;;;;;9.23;100.00;100072.81;5156473;27;20043;-75
2023/12/21 05:15:34;;;;;;;6.13;1.48;;;;;;;9.23;100.00;100056.16;5171127;27;20130;-75
2023/12/21 05:18:01;;;;;;;6.05;1.40;;;;;;;9.22;100.00;100044.06;5175001;27;20630;-73
2023/12/21 05:20:28;;;;;;;3.33;1.17;;;;;;;9.21;100.00;100038.00;5173660;27;20047;-73
2023/12/21 05:22:54;;;;;;;7.32;1.63;;;;;;;9.22;100.00;100049.38;5175325;27;20535;-73
2023/12/21 05:25:26;;;;;;;8.35;1.70;;;;;;;9.21;100.00;100040.66;5174540;27;20134;-73
2023/12/21 05:27:53;;;;;;;5.25;1.30;;;;;;;9.21;100.00;100042.59;5174410;27;20050;-73
2023/12/21 05:30:20;;;;;;;7.80;1.50;;;;;;;9.20;100.00;100062.34;5175025;27;20513;-73
2023/12/21 05:32:47;;;;;;;7.15;1.30;;;;;;;9.18;100.00;100064.75;5174832;27;20058;-73
2023/12/21 05:35:14;;;;;;;10.98;1.80;;;;;;;9.14;100.00;100058.84;5173855;27;20042;-73
2023/12/21 05:37:41;;;;;;;4.30;1.20;;;;;;;9.11;100.00;100047.19;5174331;27;20096;-73
2023/12/21 05:40:09;;;;;;;3.22;1.63;;;;;;;9.08;100.00;100057.97;5174762;27;20053;-74
2023/12/21 05:42:35;;;;;;;5.25;1.50;;;;;;;9.05;100.00;100037.63;5173610;27;20069;-73
2023/12/21 05:45:02;;;;;;;5.60;1.63;;;;;;;9.02;100.00;100029.34;5176824;27;20488;-73
2023/12/21 05:47:31;;;;;;;3.10;1.60;;;;;;;9.01;100.00;100029.81;5177814;27;20485;-73
2023/12/21 05:49:58;;;;;;;5.28;1.60;;;;;;;9.00;100.00;100039.69;5178461;27;20078;-73
2023/12/21 05:52:25;;;;;;;5.88;1.30;;;;;;;8.98;100.00;100050.00;5177085;27;20068;-73
2023/12/21 05:54:52;;;;;;;5.07;1.65;;;;;;;8.96;100.00;100033.78;5177792;27;20096;-73
2023/12/21 05:57:19;;;;;;;6.63;1.80;;;;;;;8.96;100.00;100030.41;5178104;27;20074;-73
2023/12/21 05:59:45;;;;;;;6.28;1.38;;;;;;;8.94;100.00;100036.16;5177906;27;20054;-73
2023/12/21 06:02:11;;;;;;;5.35;1.92;;;;;;;8.95;100.00;100034.22;5177992;27;20067;-73
2023/12/21 06:04:38;;;;;;;5.28;1.65;;;;;;;8.94;100.00;100030.09;5177096;27;20046;-73
2023/12/21 06:07:05;;;;;;;2.85;1.58;;;;;;;8.94;100.00;100022.88;5159829;27;20047;-73
2023/12/21 06:09:32;;;;;;;5.53;1.60;;;;;;;8.94;100.00;100008.88;5176753;27;20115;-73
2023/12/21 06:11:58;;;;;;;4.65;2.13;;;;;;;8.92;100.00;100001.34;5177573;27;20042;-73
2023/12/21 06:14:24;;;;;;;5.07;1.85;;;;;;;8.92;100.00;100005.91;5175974;27;20058;-73
2023/12/21 06:16:51;;;;;;;4.38;1.77;;;;;;;8.92;100.00;100005.91;5178276;27;20085;-73
2023/12/21 06:19:18;;;;;;;5.63;1.60;;;;;;;8.90;100.00;99971.84;5177527;27;20125;-73
2023/12/21 06:21:44;;;;;;;7.85;1.55;;;;;;;8.91;100.00;99954.00;5177507;27;20054;-74
2023/12/21 06:24:11;;;;;;;4.57;1.50;;;;;;;8.90;100.00;99960.50;5177136;27;20114;-74
2023/12/21 06:26:41;;;;;;;7.03;1.50;;;;;;;8.91;100.00;99969.94;5177403;27;20046;-73
2023/12/21 06:29:08;;;;;;;6.82;1.50;;;;;;;8.91;100.00;99946.78;5178012;27;20486;-73
2023/12/21 06:31:35;;;;;;;4.45;1.83;;;;;;;8.91;100.00;99941.47;5176788;27;20105;-73
2023/12/21 06:34:02;;;;;;;7.53;1.90;;;;;;;8.90;100.00;99931.31;5176772;27;20047;-73
2023/12/21 06:36:29;;;;;;;4.75;2.22;;;;;;;8.91;100.00;99930.13;5177268;27;20046;-73
2023/12/21 06:38:55;;;;;;;3.75;1.67;;;;;;;8.92;100.00;99915.66;5177628;27;20900;-73
2023/12/21 06:41:22;;;;;;;5.25;1.90;;;;;;;8.90;100.00;99897.53;5176559;27;20123;-73
2023/12/21 06:43:49;;;;;;;5.80;1.92;;;;;;;8.90;100.00;99894.88;5177706;27;20046;-73
2023/12/21 06:46:16;;;;;;;7.63;2.03;;;;;;;8.91;100.00;99896.34;5176987;27;20042;-74
2023/12/21 06:48:43;;;;;;;8.95;2.00;;;;;;;8.92;100.00;99903.13;5176572;27;20049;-73
2023/12/21 06:51:11;;;;;;;8.93;1.90;;;;;;;8.92;100.00;99883.81;5177831;27;20051;-73
2023/12/21 06:53:38;;;;;;;9.35;1.88;;;;;;;8.93;100.00;99875.41;5176848;27;20047;-73
2023/12/21 06:56:06;;;;;;;6.43;1.65;;;;;;;8.93;100.00;99879.97;5176629;27;20088;-73
2023/12/21 06:58:53;;;;;;;4.25;2.05;;;;;;;8.95;100.00;99873.03;5173829;27;20053;-75
2023/12/21 07:01:27;;;;;;;6.50;2.03;;;;;;;8.97;100.00;99870.69;5176553;27;20130;-74
2023/12/21 07:03:55;;;;;;;5.80;1.95;;;;;;;9.00;100.00;99855.78;5173429;27;20046;-74
2023/12/21 07:06:21;;;;;;;3.70;1.77;;;;;;;9.02;100.00;99850.75;5177057;27;20053;-73
2023/12/21 07:08:48;;;;;;;6.18;2.10;;;;;;;9.02;100.00;99838.22;5177169;27;20145;-73
2023/12/21 07:11:17;;;;;;;6.05;1.75;;;;;;;9.02;100.00;99824.19;5176549;27;20043;-73
2023/12/21 07:13:44;;;;;;;4.35;1.90;;;;;;;9.03;100.00;99831.72;5176472;27;20057;-73
2023/12/21 07:16:12;;;;;;;4.20;1.67;;;;;;;9.05;100.00;99814.59;5175805;27;20045;-73
2023/12/21 07:18:38;;;;;;;5.65;1.95;;;;;;;9.02;100.00;99818.91;5176655;27;20039;-73
2023/12/21 07:21:05;;;;;;;6.72;1.85;;;;;;;9.00;100.00;99826.56;5176730;27;20135;-73
2023/12/21 07:23:32;;;;;;;9.48;2.65;;;;;;;8.97;100.00;99820.25;5175439;27;20050;-73
2023/12/21 07:25:59;;;;;;;4.35;1.85;;;;;;;8.95;100.00;99825.25;5177305;27;20054;-73
2023/12/21 07:28:28;;;;;;;10.75;2.05;;;;;;;8.94;100.00;99823.78;5175977;27;20121;-73
2023/12/21 07:30:55;;;;;;;11.20;1.70;;;;;;;8.93;100.00;99811.69;5176801;27;20091;-73
2023/12/21 07:33:21;;;;;;;6.03;1.80;;;;;;;8.90;100.00;99812.59;5176551;27;20043;-75
2023/12/21 07:35:48;;;;;;;2.17;1.13;;;;;;;8.90;100.00;99801.25;5176598;27;20039;-75
2023/12/21 07:38:15;;;;;;;10.05;2.40;;;;;;;8.89;100.00;99805.09;5175828;27;20065;-75
2023/12/21 07:40:41;;;;;;;4.30;1.30;;;;;;;8.88;100.00;99804.34;5176240;27;20053;-75
2023/12/21 07:43:08;;;;;;;6.43;1.35;;;;;;;8.86;100.00;99801.41;5176599;27;20425;-75
2023/12/21 07:45:34;;;;;;;3.35;1.30;;;;;;;8.86;100.00;99801.41;5175497;27;20459;-75
2023/12/21 07:48:01;;;;;;;4.78;2.25;;;;;;;8.85;100.00;99801.84;5175743;27;20038;-75
2023/12/21 07:50:29;;;;;;;2.00;1.27;;;;;;;8.85;100.00;99810.56;5176254;27;20039;-75
2023/12/21 07:52:56;;;;;;;5.95;1.30;;;;;;;8.86;100.00;99811.28;5176773;27;20084;-75
2023/12/21 07:55:23;;;;;;;6.75;1.33;;;;;;;8.84;100.00;99800.38;5175582;27;20126;-76
2023/12/21 07:57:50;;;;;;;4.47;1.38;;;;;;;8.85;100.00;99799.19;5176041;27;20038;-77
2023/12/21 08:00:17;;;;;;;1.45;1.15;;;;;;;8.84;100.00;99793.16;5174854;27;20092;-76
2023/12/21 08:02:46;;;;;;;2.10;1.45;;;;;;;8.85;100.00;99807.91;5175154;27;20043;-76
2023/12/21 08:05:14;;;;;;;3.25;1.20;;;;;;;8.85;100.00;99807.91;5173804;27;20111;-76
2023/12/21 08:07:41;;;;;;;6.05;1.75;;;;;;;8.85;100.00;99802.59;5175031;27;20587;-76
2023/12/21 08:10:08;;;;;;;3.80;1.38;;;;;;;8.85;100.00;99805.25;5176147;27;20047;-76
2023/12/21 08:12:35;;;;;;;6.45;1.90;;;;;;;8.86;100.00;99784.75;5174805;27;20039;-76
2023/12/21 08:15:02;;;;;;;4.40;1.50;;;;;;;8.85;100.00;99781.34;5175953;27;20126;-76
2023/12/21 08:17:31;;;;;;;3.83;1.83;;;;;;;8.86;100.00;99745.69;5175377;27;20065;-77
2023/12/21 08:19:57;;;;;;;4.97;1.75;;;;;;;8.88;100.00;99764.53;5172749;27;20038;-78
2023/12/21 08:22:24;;;;;;;7.53;1.65;;;;;;;8.90;100.00;99764.09;5175200;27;20038;-78
2023/12/21 08:24:51;;;;;;;5.07;1.92;;;;;;;8.89;100.00;99766.00;5175416;27;20046;-76
2023/12/21 08:27:19;;;;;;;3.80;1.40;;;;;;;8.91;100.00;99746.97;5174977;27;20101;-77
2023/12/21 08:29:46;;;;;;;9.73;1.60;;;;;;;8.91;100.00;99739.75;5175693;27;20051;-76
2023/12/21 08:32:13;;;;;;;7.32;1.80;;;;;;;8.91;100.00;99739.75;5174716;27;20039;-77
2023/12/21 08:34:40;;;;;;;6.90;1.38;;;;;;;8.91;100.00;99747.72;5175903;27;20045;-75
2023/12/21 08:37:07;;;;;;;6.28;1.52;;;;;;;8.92;100.00;99743.88;5175678;27;20046;-77
2023/12/21 08:39:34;;;;;;;7.25;1.38;;;;;;;8.94;100.00;99732.81;5175909;27;20039;-77
2023/12/21 08:42:02;;;;;;;5.97;1.80;;;;;;;8.95;100.00;99737.66;5179968;27;20133;-77
2023/12/21 08:44:29;;;;;;;7.38;1.25;;;;;;;8.98;100.00;99742.06;5179898;27;20939;-77
2023/12/21 08:46:59;;;;;;;6.70;1.58;;;;;;;9.00;100.00;99731.75;5181327;27;20049;-74
2023/12/21 08:49:26;;;;;;;2.63;1.13;;;;;;;9.03;100.00;99736.16;5161566;27;20031;-76
2023/12/21 08:51:53;;;;;;;2.95;1.30;;;;;;;9.04;100.00;99728.91;5158101;27;20042;-76
2023/12/21 08:54:21;;;;;;;2.55;1.00;;;;;;;9.06;100.00;99723.16;5176605;27;20142;-77
2023/12/21 08:56:50;;;;;;;11.85;2.03;;;;;;;9.07;100.00;99709.44;5175378;27;20049;-78
2023/12/21 08:59:21;;;;;;;2.45;0.90;;;;;;;9.09;100.00;99716.94;5173459;27;20063;-75
2023/12/21 09:01:48;;;;;;;7.07;1.40;;;;;;;9.15;100.00;99710.56;5175032;27;20053;-77
2023/12/21 09:04:15;;;;;;;4.72;1.13;;;;;;;9.20;100.00;99698.53;5174930;27;20067;-78
2023/12/21 09:06:42;;;;;;;3.80;0.90;;;;;;;9.24;100.00;99701.75;5176453;27;20043;-78
2023/12/21 09:09:09;;;;;;;5.80;1.30;;;;;;;9.26;100.00;99702.78;5175939;27;20035;-78
2023/12/21 09:11:35;;;;;;;2.42;0.85;;;;;;;9.30;100.00;99695.38;5159240;27;20118;-79
2023/12/21 09:14:02;;;;;;;3.83;1.20;;;;;;;9.31;100.00;99694.19;5147413;27;20051;-77
2023/12/21 09:16:29;;;;;;;2.15;0.90;;;;;;;9.32;100.00;99679.72;5153827;27;20505;-77
2023/12/21 09:18:56;;;;;;;5.45;1.30;;;;;;;9.32;100.00;99695.66;5156425;27;20468;-76
2023/12/21 09:21:22;;;;;;;8.25;1.50;;;;;;;9.33;100.00;99670.56;5157928;27;20035;-77
2023/12/21 09:23:49;;;;;;;6.22;1.40;;;;;;;9.35;100.00;99672.75;5157955;27;20131;-77
2023/12/21 09:26:15;;;;;;;5.28;1.25;;;;;;;9.36;100.00;99671.56;5159223;27;20043;-78
2023/12/21 09:28:42;;;;;;;4.88;1.17;;;;;;;9.38;100.00;99671.13;5158204;27;20576;-74
2023/12/21 09:31:09;;;;;;;5.82;1.50;;;;;;;9.41;100.00;99684.22;5156958;27;20766;-74
2023/12/21 09:33:38;;;;;;;8.10;1.10;;;;;;;9.46;100.00;99672.97;5157489;27;23715;-74
2023/12/21 09:36:06;;;;;;;6.57;1.15;;;;;;;9.50;100.00;99670.88;5157560;27;20043;-75
2023/12/21 09:38:33;;;;;;;6.07;1.20;;;;;;;9.52;100.00;99655.19;5156013;27;20071;-75
2023/12/21 09:40:59;;;;;;;3.42;0.95;;;;;;;9.56;100.00;99690.28;5157883;27;20047;-75
2023/12/21 09:43:28;;;;;;;2.42;0.85;;;;;;;9.61;100.00;99708.22;5157105;27;20046;-75
2023/12/21 09:45:57;;;;;;;7.43;0.90;;;;;;;9.66;100.00;99680.28;5157781;27;20433;-75
2023/12/21 09:48:25;;;;;;;6.63;1.25;;;;;;;9.67;100.00;99677.19;5157685;27;20123;-75
2023/12/21 09:50:52;;;;;;;6.35;1.73;;;;;;;9.70;100.00;99668.28;5157032;27;20469;-74
2023/12/21 09:53:22;;;;;;;4.20;0.68;;;;;;;9.75;100.00;99664.25;5154084;27;20046;-75
2023/12/21 09:55:49;;;;;;;4.45;1.38;;;;;;;9.77;100.00;99674.44;5157986;27;20506;-74
2023/12/21 09:58:16;;;;;;;5.72;0.90;;;;;;;9.77;100.00;99677.09;5157753;27;20043;-75
2023/12/21 10:00:42;;;;;;;4.82;0.95;;;;;;;9.79;100.00;99645.47;5156740;27;20043;-74
2023/12/21 10:03:09;;;;;;;4.15;1.08;;;;;;;9.81;100.00;99665.09;5157182;27;23548;-74
2023/12/21 10:05:36;;;;;;;3.50;1.05;;;;;;;9.85;100.00;99665.63;5157429;27;20067;-75
2023/12/21 10:08:03;;;;;;;6.63;1.30;;;;;;;9.89;100.00;99668.84;5156040;27;20092;-74
2023/12/21 10:10:30;;;;;;;3.65;0.70;;;;;;;9.87;100.00;99683.78;5156861;27;20502;-74
2023/12/21 10:12:58;;;;;;;4.47;0.90;;;;;;;9.85;100.00;99670.22;5157089;27;20051;-74
2023/12/21 10:15:24;;;;;;;5.00;1.38;;;;;;;9.85;100.00;99665.63;5155964;27;20506;-75
2023/12/21 10:17:51;;;;;;;4.80;0.82;;;;;;;9.86;100.00;99650.41;5157822;27;20047;-75
2023/12/21 10:20:18;;;;;;;6.00;1.23;;;;;;;9.88;100.00;99651.44;5157289;27;20047;-75
2023/12/21 10:22:45;;;;;;;5.07;0.90;;;;;;;9.92;100.00;99659.94;5156414;27;20092;-74
2023/12/21 10:25:12;;;;;;;7.22;1.33;;;;;;;9.94;100.00;99657.56;5155742;27;20035;-74
2023/12/21 10:27:40;;;;;;;5.75;1.55;;;;;;;10.03;100.00;99662.75;5156502;27;20051;-75
2023/12/21 10:30:08;;;;;;;3.55;0.95;;;;;;;10.10;100.00;99650.28;5157120;27;20069;-75
2023/12/21 10:32:34;;;;;;;6.70;1.40;;;;;;;10.13;100.00;99657.34;5156593;27;20046;-75
2023/12/21 10:35:01;;;;;;;9.35;1.33;;;;;;;10.14;100.00;99629.56;5155345;27;20051;-75
2023/12/21 10:37:28;;;;;;;11.30;1.33;;;;;;;10.15;100.00;99620.38;5154898;27;20039;-74
2023/12/21 10:39:56;;;;;;;5.72;1.10;;;;;;;10.17;100.00;99647.97;5156610;27;20047;-75
2023/12/21 10:42:23;;;;;;;7.03;2.28;;;;;;;10.20;100.00;99668.34;5156474;27;20043;-74
2023/12/21 10:44:50;;;;;;;3.00;0.95;;;;;;;10.22;100.00;99652.69;5154694;27;20135;-74
2023/12/21 10:47:18;;;;;;;2.47;1.00;;;;;;;10.21;100.00;99637.19;5156324;27;20043;-74
2023/12/21 10:49:45;;;;;;;2.15;0.85;;;;;;;10.17;100.00;99628.63;5156363;27;20075;-74
2023/12/21 10:52:12;;;;;;;8.60;1.30;;;;;;;10.11;100.00;99617.19;5156207;27;20039;-75
2023/12/21 10:54:42;;;;;;;5.30;1.08;;;;;;;10.08;100.00;99618.09;5156817;27;20047;-74
2023/12/21 10:57:09;;;;;;;3.40;0.88;;;;;;;10.05;100.00;99619.75;5156987;27;20047;-74
2023/12/21 10:59:37;;;;;;;4.30;1.08;;;;;;;10.01;100.00;99617.28;5156399;27;20830;-74
2023/12/21 11:02:03;;;;;;;4.68;1.10;;;;;;;10.02;100.00;99641.94;5156606;27;20043;-75
2023/12/21 11:04:30;;;;;;;8.45;1.42;;;;;;;10.03;100.00;99635.44;5156331;27;20075;-75
2023/12/21 11:06:57;;;;;;;2.95;0.82;;;;;;;10.06;100.00;99645.16;5155785;27;20429;-75
2023/12/21 11:09:25;;;;;;;2.95;1.23;;;;;;;10.08;100.00;99637.44;5155584;27;20043;-75
2023/12/21 11:11:57;;;;;;;6.47;0.68;;;;;;;10.11;100.00;99617.19;5152754;27;20511;-75
2023/12/21 11:14:24;;;;;;;6.78;1.20;;;;;;;10.14;100.00;99611.66;5163327;27;20125;-75
2023/12/21 11:16:54;;;;;;;3.75;0.90;;;;;;;10.15;100.00;99607.81;5155079;27;20513;-74
2023/12/21 11:19:41;;;;;;;3.25;1.10;;;;;;;10.15;100.00;99607.81;5177556;27;20519;-75
2023/12/21 11:22:08;;;;;;;11.45;1.55;;;;;;;10.13;100.00;99606.81;5174526;27;20053;-75
2023/12/21 11:24:35;;;;;;;3.97;1.15;;;;;;;10.11;100.00;99588.66;5175982;27;20042;-75
2023/12/21 11:27:02;;;;;;;10.32;1.25;;;;;;;10.07;100.00;99614.72;5177628;27;20099;-74